Terminal Aerodrome Forecast
Issued by NWS

Home | Current Version | Previous Version | Text Only | Print | Product List | Glossary On
Versions: 1 2 3 4 5 6 7 8 9 10 11 12 13 14
498
FTUS44 KLIX 271741
TAFGPT
TAF
KGPT 271741Z 2718/2818 05007KT P6SM FEW050 SCT150
      TEMPO 2720/2724 3SM TSRA BKN025CB
     FM280000 12009KT P6SM SCT040 BKN090
     FM280500 08008KT P6SM BKN150
     FM281500 09007KT P6SM BKN100=

USA.gov is the U.S. government's official web portal to all federal, state and local government web resources and services.